createdAt,value
2023-02-13T00:00:55.791Z,7.55
2023-02-13T00:03:28.527Z,7.56
2023-02-13T00:06:00.453Z,7.50
2023-02-13T00:08:31.789Z,7.48
2023-02-13T00:11:02.737Z,7.52
2023-02-13T00:13:35.475Z,7.51
2023-02-13T00:16:06.660Z,7.52
2023-02-13T00:18:38.925Z,7.59
2023-02-13T00:21:12.641Z,7.57
2023-02-13T00:23:43.102Z,7.64
2023-02-13T00:26:15.912Z,7.60
2023-02-13T00:28:46.983Z,7.50
2023-02-13T00:31:20.572Z,7.58
2023-02-13T00:33:52.840Z,7.52
2023-02-13T00:36:25.301Z,7.60
2023-02-13T00:38:56.710Z,7.48
2023-02-13T00:41:27.184Z,7.50
2023-02-13T00:43:57.681Z,7.54
2023-02-13T00:46:28.286Z,7.46
2023-02-13T00:48:58.713Z,7.50
2023-02-13T00:51:29.246Z,7.46
2023-02-13T00:54:01.308Z,7.48
2023-02-13T00:56:31.825Z,7.39
2023-02-13T00:59:02.331Z,7.39
2023-02-13T01:01:32.815Z,7.42
2023-02-13T01:04:03.504Z,7.31
2023-02-13T01:06:33.927Z,7.38
2023-02-13T01:09:05.562Z,7.24
2023-02-13T01:11:36.152Z,7.44
2023-02-13T01:14:06.815Z,7.32
2023-02-13T01:16:37.269Z,7.46
2023-02-13T01:19:07.723Z,7.34
2023-02-13T01:21:38.281Z,7.34
2023-02-13T01:24:08.879Z,7.34
2023-02-13T01:26:40.888Z,7.25
2023-02-13T01:29:13.627Z,7.22
2023-02-13T01:31:44.348Z,7.34
2023-02-13T01:34:14.920Z,7.27
2023-02-13T01:36:45.462Z,7.24
2023-02-13T01:39:16.083Z,7.24
2023-02-13T01:41:46.596Z,7.20
2023-02-13T01:44:48.987Z,7.18
2023-02-13T01:47:28.536Z,7.24
2023-02-13T01:50:07.889Z,7.21
2023-02-13T01:52:41.374Z,7.18
2023-02-13T01:55:13.145Z,7.36
2023-02-13T01:57:48.204Z,7.18
2023-02-13T02:00:19.514Z,7.04
2023-02-13T02:02:55.903Z,7.22
2023-02-13T02:05:28.687Z,7.12
2023-02-13T02:08:04.101Z,7.10
2023-02-13T02:10:35.597Z,7.26
2023-02-13T02:13:09.178Z,7.06
2023-02-13T02:15:40.000Z,7.03
2023-02-13T02:18:25.010Z,7.02
2023-02-13T02:21:04.624Z,7.06
2023-02-13T02:23:56.228Z,6.99
2023-02-13T02:26:38.645Z,6.99
2023-02-13T02:29:27.387Z,7.02
2023-02-13T02:32:12.858Z,6.92
2023-02-13T02:34:46.650Z,7.09
2023-02-13T02:37:23.013Z,6.98
2023-02-13T02:40:22.452Z,7.00
2023-02-13T02:43:25.476Z,6.88
2023-02-13T02:45:59.292Z,6.95
2023-02-13T02:48:59.919Z,7.00
2023-02-13T02:51:45.932Z,6.82
2023-02-13T02:54:55.630Z,6.92
2023-02-13T02:57:30.838Z,6.94
2023-02-13T03:00:19.370Z,6.98
2023-02-13T03:03:07.768Z,6.86
2023-02-13T03:05:59.213Z,6.94
2023-02-13T03:08:49.086Z,6.84
2023-02-13T03:11:39.007Z,6.75
2023-02-13T03:14:12.175Z,6.88
2023-02-13T03:17:00.199Z,6.75
2023-02-13T03:20:07.294Z,6.78
2023-02-13T03:22:56.650Z,6.70
2023-02-13T03:25:37.229Z,6.79
2023-02-13T03:28:49.765Z,6.72
2023-02-13T03:31:24.988Z,6.77
2023-02-13T03:34:07.513Z,6.74
2023-02-13T03:37:04.764Z,6.76
2023-02-13T03:39:47.136Z,6.82
2023-02-13T03:42:30.158Z,6.77
2023-02-13T03:45:24.532Z,6.82
2023-02-13T03:47:58.007Z,6.76
2023-02-13T03:50:30.037Z,6.76
2023-02-13T03:53:09.593Z,6.82
2023-02-13T03:56:04.015Z,6.70
2023-02-13T03:58:55.536Z,6.81
2023-02-13T04:01:31.450Z,6.80
2023-02-13T04:04:25.066Z,6.84
2023-02-13T04:07:02.763Z,6.82
2023-02-13T04:09:35.746Z,6.84
2023-02-13T04:12:24.789Z,6.89
2023-02-13T04:15:01.117Z,6.97
2023-02-13T04:17:37.616Z,6.81
2023-02-13T04:20:09.736Z,6.90
2023-02-13T04:22:47.764Z,6.88
2023-02-13T04:25:21.402Z,6.86
2023-02-13T04:27:52.136Z,6.91
2023-02-13T04:30:24.170Z,6.96
2023-02-13T04:32:54.570Z,6.94
2023-02-13T04:35:25.262Z,7.06
2023-02-13T04:37:55.679Z,7.00
2023-02-13T04:40:26.464Z,6.91
2023-02-13T04:42:57.449Z,7.05
2023-02-13T04:45:28.284Z,7.01
2023-02-13T04:47:59.151Z,7.02
2023-02-13T04:50:29.672Z,7.02
2023-02-13T04:53:00.186Z,6.98
2023-02-13T04:55:30.811Z,7.03
2023-02-13T04:58:01.219Z,6.96
2023-02-13T05:00:32.005Z,6.98
2023-02-13T05:03:07.688Z,6.96
2023-02-13T05:05:38.780Z,6.96
2023-02-13T05:08:10.096Z,6.79
2023-02-13T05:10:40.812Z,6.92
2023-02-13T05:13:12.191Z,6.77
2023-02-13T05:15:44.384Z,6.84
2023-02-13T05:18:15.507Z,6.78
2023-02-13T05:20:47.921Z,6.90
2023-02-13T05:23:24.450Z,6.82
2023-02-13T05:25:54.784Z,6.77
2023-02-13T05:28:43.826Z,6.97
2023-02-13T05:31:14.701Z,6.88
2023-02-13T05:33:45.273Z,6.92
2023-02-13T05:36:15.836Z,6.86
2023-02-13T05:38:46.393Z,6.86
2023-02-13T05:41:17.121Z,6.87
2023-02-13T05:43:47.828Z,6.86
2023-02-13T05:46:18.495Z,6.96
2023-02-13T05:48:48.986Z,6.94
2023-02-13T05:51:20.590Z,6.95
2023-02-13T05:53:51.346Z,7.08
2023-02-13T05:56:33.808Z,7.15
2023-02-13T05:59:04.573Z,7.02
2023-02-13T06:01:35.119Z,7.14
2023-02-13T06:04:07.677Z,7.25
2023-02-13T06:06:38.341Z,7.10
2023-02-13T06:09:08.838Z,7.17
2023-02-13T06:11:39.414Z,7.11
2023-02-13T06:14:09.980Z,7.18
2023-02-13T06:16:40.672Z,7.18
2023-02-13T06:19:11.244Z,7.10
2023-02-13T06:21:43.436Z,7.11
2023-02-13T06:24:14.183Z,7.10
2023-02-13T06:26:44.675Z,7.38
2023-02-13T06:29:15.093Z,7.42
2023-02-13T06:31:47.665Z,7.44
2023-02-13T06:34:18.130Z,7.28
2023-02-13T06:36:49.554Z,7.34
2023-02-13T06:39:20.377Z,7.38
2023-02-13T06:41:50.899Z,7.43
2023-02-13T06:44:22.504Z,7.28
2023-02-13T06:46:53.280Z,7.39
2023-02-13T06:49:25.265Z,7.20
2023-02-13T06:51:55.880Z,7.28
2023-02-13T06:54:41.026Z,7.30
2023-02-13T06:56:58.569Z,7.21
2023-02-13T06:59:29.195Z,7.19
2023-02-13T07:01:59.591Z,7.28
2023-02-13T07:04:30.285Z,7.17
2023-02-13T07:07:00.747Z,7.31
2023-02-13T07:09:34.024Z,7.24
2023-02-13T07:12:06.511Z,7.30
2023-02-13T07:14:37.089Z,7.35
2023-02-13T07:17:07.880Z,7.56
2023-02-13T07:19:39.060Z,7.36
2023-02-13T07:22:09.506Z,7.56
2023-02-13T07:24:39.985Z,7.42
2023-02-13T07:27:10.516Z,7.42
2023-02-13T07:29:42.004Z,7.45
2023-02-13T07:32:13.529Z,7.50
2023-02-13T07:34:59.579Z,7.28
2023-02-13T07:37:16.556Z,7.30
2023-02-13T07:39:47.148Z,7.27
2023-02-13T07:42:17.712Z,7.26
2023-02-13T07:44:48.385Z,7.28
2023-02-13T07:47:20.525Z,7.37
2023-02-13T07:49:54.386Z,7.24
2023-02-13T07:52:25.017Z,7.36
2023-02-13T07:54:55.697Z,7.45
2023-02-13T07:57:26.338Z,7.62
2023-02-13T07:59:58.697Z,7.40
2023-02-13T08:02:29.558Z,7.42
2023-02-13T08:05:00.113Z,7.42
2023-02-13T08:07:32.275Z,7.56
2023-02-13T08:10:21.218Z,7.58
2023-02-13T08:12:53.560Z,7.56
2023-02-13T08:15:24.172Z,7.60
2023-02-13T08:17:54.804Z,7.49
2023-02-13T08:20:25.719Z,7.63
2023-02-13T08:22:58.728Z,7.90
2023-02-13T08:25:30.002Z,7.84
2023-02-13T08:28:01.264Z,7.79
2023-02-13T08:30:37.403Z,7.93
2023-02-13T08:33:07.876Z,7.75
2023-02-13T08:35:39.249Z,7.86
2023-02-13T08:38:11.272Z,7.95
2023-02-13T08:40:42.200Z,7.92
2023-02-13T08:43:14.029Z,7.86
2023-02-13T08:45:45.330Z,7.88
2023-02-13T08:48:18.177Z,7.99
2023-02-13T08:50:49.117Z,7.96
2023-02-13T08:53:19.966Z,7.94
2023-02-13T08:55:55.901Z,7.93
2023-02-13T08:58:29.148Z,7.96
2023-02-13T09:00:59.619Z,7.95
2023-02-13T09:03:33.522Z,7.78
2023-02-13T09:06:04.840Z,7.94
2023-02-13T09:08:38.759Z,7.85
2023-02-13T09:11:13.721Z,7.78
2023-02-13T09:13:44.548Z,7.87
2023-02-13T09:16:17.856Z,7.74
2023-02-13T09:18:49.961Z,7.78
2023-02-13T09:21:23.818Z,7.93
2023-02-13T09:23:55.396Z,7.67
2023-02-13T09:26:27.338Z,7.90
2023-02-13T09:28:57.929Z,7.59
2023-02-13T09:31:30.411Z,7.58
2023-02-13T09:34:00.892Z,7.56
2023-02-13T09:36:31.352Z,7.43
2023-02-13T09:39:03.366Z,7.52
2023-02-13T09:41:40.464Z,7.71
2023-02-13T09:44:38.053Z,7.52
2023-02-13T09:47:23.808Z,7.48
2023-02-13T09:50:03.132Z,7.30
2023-02-13T09:52:38.377Z,7.42
2023-02-13T09:55:26.594Z,7.50
2023-02-13T09:58:12.020Z,7.41
2023-02-13T10:00:45.193Z,7.61
2023-02-13T10:03:24.276Z,7.75
2023-02-13T10:06:30.993Z,7.83
2023-02-13T10:09:07.287Z,7.76
2023-02-13T10:11:47.823Z,7.93
2023-02-13T10:14:23.065Z,7.95
2023-02-13T10:17:01.046Z,8.13
2023-02-13T10:19:55.398Z,8.30
2023-02-13T10:22:44.838Z,8.07
2023-02-13T10:25:27.676Z,8.04
2023-02-13T10:28:15.938Z,7.86
2023-02-13T10:30:55.927Z,8.17
2023-02-13T10:33:38.381Z,7.95
2023-02-13T10:36:21.645Z,8.04
2023-02-13T10:39:03.771Z,8.08
2023-02-13T10:41:37.566Z,8.12
2023-02-13T10:44:16.947Z,8.12
2023-02-13T10:47:17.551Z,8.18
2023-02-13T10:49:59.684Z,7.91
2023-02-13T10:52:39.051Z,8.04
2023-02-13T10:55:29.507Z,7.94
2023-02-13T10:58:18.361Z,8.02
2023-02-13T11:00:58.160Z,8.10
2023-02-13T11:03:30.916Z,8.22
2023-02-13T11:06:03.716Z,8.10
2023-02-13T11:08:38.723Z,8.14
2023-02-13T11:11:36.948Z,8.29
2023-02-13T11:14:16.432Z,7.98
2023-02-13T11:17:09.939Z,7.98
2023-02-13T11:19:43.370Z,8.00
2023-02-13T11:22:16.877Z,7.96
2023-02-13T11:24:56.123Z,7.94
2023-02-13T11:27:29.578Z,7.82
2023-02-13T11:30:05.819Z,8.12
2023-02-13T11:32:38.330Z,8.07
2023-02-13T11:35:30.473Z,8.04
2023-02-13T11:38:14.406Z,7.88
2023-02-13T11:40:47.912Z,7.84
2023-02-13T11:43:37.219Z,8.00
2023-02-13T11:46:25.724Z,7.92
2023-02-13T11:49:02.309Z,8.00
2023-02-13T11:51:47.885Z,8.10
2023-02-13T11:54:32.930Z,8.26
2023-02-13T11:57:23.653Z,8.22
2023-02-13T11:59:54.804Z,8.26
2023-02-13T12:02:35.109Z,8.38
2023-02-13T12:05:20.714Z,8.34
2023-02-13T12:07:51.778Z,8.38
2023-02-13T12:10:25.323Z,8.52
2023-02-13T12:12:59.511Z,8.40
2023-02-13T12:15:36.100Z,8.59
2023-02-13T12:18:19.462Z,8.48
2023-02-13T12:21:18.456Z,8.37
2023-02-13T12:24:19.187Z,8.52
2023-02-13T12:27:02.406Z,8.32
2023-02-13T12:29:41.618Z,8.08
2023-02-13T12:32:21.055Z,8.08
2023-02-13T12:35:20.448Z,8.11
2023-02-13T12:38:17.426Z,8.02
2023-02-13T12:41:10.676Z,8.11
2023-02-13T12:44:16.653Z,7.98
2023-02-13T12:46:54.530Z,7.96
2023-02-13T12:49:48.223Z,8.06
2023-02-13T12:52:38.949Z,8.10
2023-02-13T12:55:38.083Z,7.86
2023-02-13T12:58:19.343Z,7.92
2023-02-13T13:01:25.361Z,7.97
2023-02-13T13:04:02.786Z,7.80
2023-02-13T13:06:58.332Z,7.78
2023-02-13T13:09:46.543Z,7.84
2023-02-13T13:12:29.329Z,7.95
2023-02-13T13:15:08.394Z,7.98
2023-02-13T13:17:49.267Z,8.10
2023-02-13T13:20:47.120Z,8.06
2023-02-13T13:23:24.956Z,8.03
2023-02-13T13:26:11.629Z,8.02
2023-02-13T13:28:45.659Z,8.08
2023-02-13T13:31:18.616Z,8.10
2023-02-13T13:33:49.780Z,8.11
2023-02-13T13:36:48.010Z,8.14
2023-02-13T13:39:41.259Z,8.06
2023-02-13T13:42:37.076Z,7.99
2023-02-13T13:45:27.326Z,8.11
2023-02-13T13:48:10.365Z,7.97
2023-02-13T13:50:46.584Z,7.92
2023-02-13T13:53:23.584Z,7.80
2023-02-13T13:55:59.847Z,7.71
2023-02-13T13:58:39.556Z,7.68
2023-02-13T14:01:25.084Z,7.74
2023-02-13T14:03:58.659Z,7.77
2023-02-13T14:06:50.292Z,7.93
2023-02-13T14:09:43.013Z,7.80
2023-02-13T14:12:32.237Z,7.84
2023-02-13T14:15:04.311Z,7.82
2023-02-13T14:17:52.693Z,7.80
2023-02-13T14:20:41.065Z,7.78
2023-02-13T14:23:32.937Z,7.66
2023-02-13T14:26:24.982Z,7.72
2023-02-13T14:28:58.601Z,7.59
2023-02-13T14:31:40.727Z,7.68
2023-02-13T14:34:18.376Z,7.60
2023-02-13T14:36:53.387Z,7.65
2023-02-13T14:39:31.340Z,7.55
2023-02-13T14:42:04.685Z,7.52
2023-02-13T14:44:59.749Z,7.52
2023-02-13T14:47:39.609Z,7.66
2023-02-13T14:50:18.771Z,7.60
2023-02-13T14:52:53.779Z,7.56
2023-02-13T14:55:27.869Z,7.52
2023-02-13T14:58:04.223Z,7.86
2023-02-13T15:00:43.612Z,7.64
2023-02-13T15:03:23.076Z,7.68
2023-02-13T15:06:00.570Z,7.70
2023-02-13T15:08:37.398Z,7.48
2023-02-13T15:11:11.117Z,7.58
2023-02-13T15:13:42.432Z,7.54
2023-02-13T15:16:15.256Z,7.50
2023-02-13T15:18:53.306Z,7.49
2023-02-13T15:21:28.235Z,7.46
2023-02-13T15:23:58.981Z,7.49
2023-02-13T15:26:30.526Z,7.50
2023-02-13T15:29:11.333Z,7.62
2023-02-13T15:31:41.716Z,7.58
2023-02-13T15:34:31.190Z,7.66
2023-02-13T15:37:06.804Z,7.65
2023-02-13T15:39:38.546Z,7.58
2023-02-13T15:42:12.972Z,7.46
2023-02-13T15:44:46.530Z,7.60
2023-02-13T15:47:26.490Z,7.50
2023-02-13T15:49:57.541Z,7.56
2023-02-13T15:52:38.870Z,7.40
2023-02-13T15:55:22.575Z,7.40
2023-02-13T15:57:55.524Z,7.36
2023-02-13T16:00:32.943Z,7.43
2023-02-13T16:03:06.481Z,7.40
2023-02-13T16:05:41.354Z,7.24
2023-02-13T16:08:30.264Z,7.32
2023-02-13T16:11:22.025Z,7.16
2023-02-13T16:14:07.293Z,7.12
2023-02-13T16:16:46.725Z,7.18
2023-02-13T16:19:35.849Z,7.18
2023-02-13T16:22:18.242Z,7.21
2023-02-13T16:24:54.176Z,7.20
2023-02-13T16:27:28.151Z,7.17
2023-02-13T16:30:02.597Z,7.12
2023-02-13T16:32:38.222Z,7.08
2023-02-13T16:35:31.278Z,7.14
2023-02-13T16:38:03.219Z,7.16
2023-02-13T16:40:41.957Z,7.38
2023-02-13T16:43:41.759Z,7.10
2023-02-13T16:46:19.126Z,7.06
2023-02-13T16:49:02.094Z,7.05
2023-02-13T16:51:35.691Z,7.06
2023-02-13T16:54:21.120Z,7.08
2023-02-13T16:56:57.571Z,7.10
2023-02-13T16:59:31.269Z,7.13
2023-02-13T17:02:16.915Z,7.16
2023-02-13T17:04:59.890Z,7.10
2023-02-13T17:07:32.523Z,7.12
2023-02-13T17:10:08.091Z,7.12
2023-02-13T17:12:39.832Z,7.30
2023-02-13T17:15:13.202Z,7.16
2023-02-13T17:17:47.122Z,7.22
2023-02-13T17:20:23.732Z,7.26
2023-02-13T17:22:56.678Z,7.15
2023-02-13T17:25:30.238Z,7.14
2023-02-13T17:28:05.457Z,7.21
2023-02-13T17:30:36.073Z,7.00
2023-02-13T17:33:09.330Z,7.14
2023-02-13T17:35:40.412Z,7.02
2023-02-13T17:38:11.664Z,7.00
2023-02-13T17:40:43.565Z,7.16
2023-02-13T17:43:18.038Z,7.24
2023-02-13T17:45:50.624Z,7.04
2023-02-13T17:48:21.431Z,7.26
2023-02-13T17:50:52.520Z,7.12
2023-02-13T17:53:30.684Z,7.03
2023-02-13T17:56:01.288Z,7.12
2023-02-13T17:58:31.874Z,7.05
2023-02-13T18:01:03.236Z,7.04
2023-02-13T18:03:34.602Z,6.97
2023-02-13T18:06:05.270Z,7.00
2023-02-13T18:08:35.819Z,7.02
2023-02-13T18:11:09.426Z,6.83
2023-02-13T18:13:41.920Z,6.84
2023-02-13T18:16:12.994Z,6.87
2023-02-13T18:18:43.743Z,6.92
2023-02-13T18:21:14.171Z,7.02
2023-02-13T18:23:44.847Z,7.00
2023-02-13T18:26:15.302Z,6.84
2023-02-13T18:28:50.629Z,6.85
2023-02-13T18:31:22.921Z,6.80
2023-02-13T18:33:56.518Z,6.86
2023-02-13T18:36:27.977Z,6.86
2023-02-13T18:38:59.743Z,6.90
2023-02-13T18:41:30.537Z,6.74
2023-02-13T18:44:01.262Z,6.80
2023-02-13T18:46:32.128Z,6.76
2023-02-13T18:49:03.154Z,6.70
2023-02-13T18:51:35.551Z,6.63
2023-02-13T18:54:06.762Z,6.57
2023-02-13T18:56:37.777Z,6.56
2023-02-13T18:59:08.455Z,6.56
2023-02-13T19:01:39.204Z,6.57
2023-02-13T19:04:10.878Z,6.64
2023-02-13T19:06:45.176Z,6.58
2023-02-13T19:09:18.775Z,6.53
2023-02-13T19:11:49.990Z,6.56
2023-02-13T19:14:26.522Z,6.52
2023-02-13T19:16:57.296Z,6.56
2023-02-13T19:19:27.961Z,6.57
2023-02-13T19:21:58.514Z,6.48
2023-02-13T19:24:29.104Z,6.68
2023-02-13T19:27:00.798Z,6.63
2023-02-13T19:29:31.196Z,6.60
2023-02-13T19:32:01.844Z,6.56
2023-02-13T19:34:32.472Z,6.53
2023-02-13T19:37:03.147Z,6.56
2023-02-13T19:39:33.596Z,6.46
2023-02-13T19:42:04.226Z,6.66
2023-02-13T19:44:35.875Z,6.62
2023-02-13T19:47:07.814Z,6.56
2023-02-13T19:49:38.716Z,6.53
2023-02-13T19:52:09.306Z,6.61
2023-02-13T19:54:41.858Z,6.56
2023-02-13T19:57:14.015Z,6.53
2023-02-13T19:59:46.462Z,6.52
2023-02-13T20:02:19.214Z,6.52
2023-02-13T20:04:50.497Z,6.50
2023-02-13T20:07:21.091Z,6.52
2023-02-13T20:09:51.547Z,6.48
2023-02-13T20:12:24.674Z,6.48
2023-02-13T20:14:58.054Z,6.49
2023-02-13T20:17:30.480Z,6.57
2023-02-13T20:20:01.075Z,6.50
2023-02-13T20:22:33.672Z,6.50
2023-02-13T20:25:05.840Z,6.48
2023-02-13T20:27:39.077Z,6.46
2023-02-13T20:30:14.727Z,6.41
2023-02-13T20:32:47.633Z,6.45
2023-02-13T20:35:19.558Z,6.49
2023-02-13T20:37:50.061Z,6.46
2023-02-13T20:40:20.871Z,6.40
2023-02-13T20:42:51.390Z,6.60
2023-02-13T20:45:24.687Z,6.46
2023-02-13T20:47:55.221Z,6.52
2023-02-13T20:50:26.643Z,6.51
2023-02-13T20:52:59.536Z,6.46
2023-02-13T20:55:29.999Z,6.49
2023-02-13T20:58:02.373Z,6.48
2023-02-13T21:00:35.847Z,6.51
2023-02-13T21:03:07.812Z,6.41
2023-02-13T21:05:38.786Z,6.52
2023-02-13T21:08:12.790Z,6.51
2023-02-13T21:10:43.391Z,6.46
2023-02-13T21:13:13.980Z,6.40
2023-02-13T21:15:47.595Z,6.36
2023-02-13T21:18:19.793Z,6.40
2023-02-13T21:20:52.739Z,6.41
2023-02-13T21:23:26.060Z,6.50
2023-02-13T21:25:57.443Z,6.44
2023-02-13T21:28:29.572Z,6.36
2023-02-13T21:31:02.044Z,6.46
2023-02-13T21:33:32.720Z,6.42
2023-02-13T21:36:05.938Z,6.40
2023-02-13T21:38:39.168Z,6.39
2023-02-13T21:41:15.829Z,6.32
2023-02-13T21:43:49.189Z,6.42
2023-02-13T21:46:23.588Z,6.34
2023-02-13T21:48:56.954Z,6.24
2023-02-13T21:51:31.583Z,6.41
2023-02-13T21:54:08.567Z,6.48
2023-02-13T21:56:41.569Z,6.52
2023-02-13T21:59:18.146Z,6.43
2023-02-13T22:01:52.642Z,6.50
2023-02-13T22:04:23.202Z,6.36
2023-02-13T22:06:55.485Z,6.49
2023-02-13T22:09:27.974Z,6.44
2023-02-13T22:12:03.840Z,6.40
2023-02-13T22:14:37.094Z,6.50
2023-02-13T22:17:16.049Z,6.58
2023-02-13T22:19:44.361Z,6.56
2023-02-13T22:22:17.932Z,6.74
2023-02-13T22:24:51.776Z,6.82
2023-02-13T22:27:22.685Z,6.80
2023-02-13T22:29:58.182Z,6.64
2023-02-13T22:32:31.457Z,6.68
2023-02-13T22:35:03.335Z,6.53
2023-02-13T22:37:35.650Z,6.50
2023-02-13T22:40:07.491Z,6.52
2023-02-13T22:42:37.960Z,6.62
2023-02-13T22:45:09.125Z,6.52
2023-02-13T22:47:39.597Z,6.50
2023-02-13T22:50:10.720Z,6.36
2023-02-13T22:52:41.576Z,6.46
2023-02-13T22:55:12.392Z,6.46
2023-02-13T22:57:42.988Z,6.46
2023-02-13T23:00:14.954Z,6.43
2023-02-13T23:02:45.544Z,6.37
2023-02-13T23:05:17.995Z,6.36
2023-02-13T23:07:49.129Z,6.37
2023-02-13T23:10:20.256Z,6.61
2023-02-13T23:12:50.683Z,6.42
2023-02-13T23:15:21.647Z,6.46
2023-02-13T23:18:10.531Z,6.36
2023-02-13T23:20:45.573Z,6.21
2023-02-13T23:23:18.798Z,6.28
2023-02-13T23:25:49.598Z,6.16
2023-02-13T23:28:20.187Z,6.20
2023-02-13T23:30:51.826Z,6.30
2023-02-13T23:33:22.434Z,6.39
2023-02-13T23:35:53.089Z,6.33
2023-02-13T23:38:24.603Z,6.45
2023-02-13T23:40:56.010Z,6.30
2023-02-13T23:43:28.018Z,6.26
2023-02-13T23:45:58.574Z,6.31
2023-02-13T23:48:29.217Z,6.24
2023-02-13T23:51:01.961Z,6.25
2023-02-13T23:53:34.104Z,6.14
2023-02-13T23:56:05.811Z,6.15
2023-02-13T23:58:36.410Z,6.30
